sensor_id;sensor_type;location;lat;lon;timestamp;pressure;altitude;pressure_sealevel;temperature;humidity
43878;BME280;29815;48.184;11.268;2022-11-13T00:02:32;96582.94;;;3.94;100.00
43878;BME280;29815;48.184;11.268;2022-11-13T00:05:21;96585.00;;;3.92;100.00
43878;BME280;29815;48.184;11.268;2022-11-13T00:08:10;96581.50;;;3.91;100.00
43878;BME280;29815;48.184;11.268;2022-11-13T00:11:00;96587.03;;;3.90;100.00
43878;BME280;29815;48.184;11.268;2022-11-13T00:13:50;96581.72;;;3.90;100.00
43878;BME280;29815;48.184;11.268;2022-11-13T00:16:38;96576.38;;;3.90;100.00
43878;BME280;29815;48.184;11.268;2022-11-13T00:19:25;96574.94;;;3.87;100.00
43878;BME280;29815;48.184;11.268;2022-11-13T00:22:13;96576.78;;;3.87;100.00
43878;BME280;29815;48.184;11.268;2022-11-13T00:25:04;96566.94;;;3.87;100.00
43878;BME280;29815;48.184;11.268;2022-11-13T00:28:00;96579.44;;;3.87;100.00
43878;BME280;29815;48.184;11.268;2022-11-13T00:30:58;96570.25;;;3.83;100.00
43878;BME280;29815;48.184;11.268;2022-11-13T00:33:47;96566.16;;;3.80;100.00
43878;BME280;29815;48.184;11.268;2022-11-13T00:36:55;96560.19;;;3.78;100.00
43878;BME280;29815;48.184;11.268;2022-11-13T00:39:44;96562.63;;;3.73;100.00
43878;BME280;29815;48.184;11.268;2022-11-13T00:42:33;96559.97;;;3.66;100.00
43878;BME280;29815;48.184;11.268;2022-11-13T00:45:21;96553.41;;;3.62;100.00
43878;BME280;29815;48.184;11.268;2022-11-13T00:48:10;96553.78;;;3.59;100.00
43878;BME280;29815;48.184;11.268;2022-11-13T00:50:58;96550.72;;;3.56;100.00
43878;BME280;29815;48.184;11.268;2022-11-13T00:53:47;96541.72;;;3.57;100.00
43878;BME280;29815;48.184;11.268;2022-11-13T00:56:35;96538.84;;;3.58;100.00
43878;BME280;29815;48.184;11.268;2022-11-13T00:59:25;96541.50;;;3.58;100.00
43878;BME280;29815;48.184;11.268;2022-11-13T01:02:13;96529.84;;;3.53;100.00
43878;BME280;29815;48.184;11.268;2022-11-13T01:05:01;96536.38;;;3.50;100.00
43878;BME280;29815;48.184;11.268;2022-11-13T01:07:50;96533.09;;;3.48;100.00
43878;BME280;29815;48.184;11.268;2022-11-13T01:10:41;96535.34;;;3.45;100.00
43878;BME280;29815;48.184;11.268;2022-11-13T01:13:40;96536.75;;;3.40;100.00
43878;BME280;29815;48.184;11.268;2022-11-13T01:16:31;96530.44;;;3.42;100.00
43878;BME280;29815;48.184;11.268;2022-11-13T01:19:19;96525.31;;;3.40;100.00
43878;BME280;29815;48.184;11.268;2022-11-13T01:22:08;96517.53;;;3.45;100.00
43878;BME280;29815;48.184;11.268;2022-11-13T01:24:56;96513.44;;;3.43;100.00
43878;BME280;29815;48.184;11.268;2022-11-13T01:27:44;96514.84;;;3.38;100.00
43878;BME280;29815;48.184;11.268;2022-11-13T01:30:37;96509.13;;;3.35;100.00
43878;BME280;29815;48.184;11.268;2022-11-13T01:33:26;96504.00;;;3.33;100.00
43878;BME280;29815;48.184;11.268;2022-11-13T01:36:16;96502.56;;;3.31;100.00
43878;BME280;29815;48.184;11.268;2022-11-13T01:39:05;96503.19;;;3.26;100.00
43878;BME280;29815;48.184;11.268;2022-11-13T01:41:53;96496.63;;;3.22;100.00
43878;BME280;29815;48.184;11.268;2022-11-13T01:44:48;96497.00;;;3.19;100.00
43878;BME280;29815;48.184;11.268;2022-11-13T01:47:37;96498.84;;;3.19;100.00
43878;BME280;29815;48.184;11.268;2022-11-13T01:50:27;96490.44;;;3.15;100.00
43878;BME280;29815;48.184;11.268;2022-11-13T01:53:15;96481.66;;;3.15;100.00
43878;BME280;29815;48.184;11.268;2022-11-13T01:56:05;96475.72;;;3.13;100.00
43878;BME280;29815;48.184;11.268;2022-11-13T01:59:00;96477.34;;;3.14;100.00
43878;BME280;29815;48.184;11.268;2022-11-13T02:01:51;96474.69;;;3.14;100.00
43878;BME280;29815;48.184;11.268;2022-11-13T02:04:41;96469.56;;;3.12;100.00
43878;BME280;29815;48.184;11.268;2022-11-13T02:07:31;96473.88;;;3.13;100.00
43878;BME280;29815;48.184;11.268;2022-11-13T02:10:19;96465.88;;;3.13;100.00
43878;BME280;29815;48.184;11.268;2022-11-13T02:13:07;96469.38;;;3.14;100.00
43878;BME280;29815;48.184;11.268;2022-11-13T02:15:59;96460.97;;;3.10;100.00
43878;BME280;29815;48.184;11.268;2022-11-13T02:18:55;96462.19;;;3.08;100.00
43878;BME280;29815;48.184;11.268;2022-11-13T02:21:51;96455.03;;;3.08;100.00
43878;BME280;29815;48.184;11.268;2022-11-13T02:24:46;96451.34;;;3.09;100.00
43878;BME280;29815;48.184;11.268;2022-11-13T02:27:43;96445.63;;;3.12;100.00
43878;BME280;29815;48.184;11.268;2022-11-13T02:30:34;96441.94;;;3.13;100.00
43878;BME280;29815;48.184;11.268;2022-11-13T02:33:25;96446.44;;;3.13;100.00
43878;BME280;29815;48.184;11.268;2022-11-13T02:36:16;96442.78;;;3.14;100.00
43878;BME280;29815;48.184;11.268;2022-11-13T02:39:08;96440.13;;;3.14;100.00
43878;BME280;29815;48.184;11.268;2022-11-13T02:41:59;96441.13;;;3.13;100.00
43878;BME280;29815;48.184;11.268;2022-11-13T02:44:47;96436.84;;;3.12;100.00
43878;BME280;29815;48.184;11.268;2022-11-13T02:47:35;96435.38;;;3.09;100.00
43878;BME280;29815;48.184;11.268;2022-11-13T02:50:24;96429.44;;;3.07;100.00
43878;BME280;29815;48.184;11.268;2022-11-13T02:53:12;96428.44;;;3.08;100.00
43878;BME280;29815;48.184;11.268;2022-11-13T02:56:00;96421.47;;;3.07;100.00
43878;BME280;29815;48.184;11.268;2022-11-13T02:58:49;96414.50;;;3.06;100.00
43878;BME280;29815;48.184;11.268;2022-11-13T03:01:37;96416.16;;;3.07;100.00
43878;BME280;29815;48.184;11.268;2022-11-13T03:04:25;96416.16;;;3.07;100.00
43878;BME280;29815;48.184;11.268;2022-11-13T03:07:33;96407.56;;;3.05;100.00
43878;BME280;29815;48.184;11.268;2022-11-13T03:10:22;96401.63;;;3.03;100.00
43878;BME280;29815;48.184;11.268;2022-11-13T03:13:10;96395.69;;;3.01;100.00
43878;BME280;29815;48.184;11.268;2022-11-13T03:16:07;96393.25;;;2.99;100.00
43878;BME280;29815;48.184;11.268;2022-11-13T03:18:56;96386.09;;;3.00;100.00
43878;BME280;29815;48.184;11.268;2022-11-13T03:21:45;96384.03;;;3.02;100.00
43878;BME280;29815;48.184;11.268;2022-11-13T03:24:33;96374.41;;;3.01;100.00
43878;BME280;29815;48.184;11.268;2022-11-13T03:27:21;96372.81;;;3.00;100.00
43878;BME280;29815;48.184;11.268;2022-11-13T03:30:10;96370.34;;;2.98;100.00
43878;BME280;29815;48.184;11.268;2022-11-13T03:33:00;96378.31;;;2.98;100.00
43878;BME280;29815;48.184;11.268;2022-11-13T03:35:48;96365.84;;;2.99;100.00
43878;BME280;29815;48.184;11.268;2022-11-13T03:38:37;96359.91;;;2.97;100.00
43878;BME280;29815;48.184;11.268;2022-11-13T03:41:25;96366.25;;;2.96;100.00
43878;BME280;29815;48.184;11.268;2022-11-13T03:44:13;96366.25;;;2.96;100.00
43878;BME280;29815;48.184;11.268;2022-11-13T03:47:01;96360.09;;;2.95;100.00
43878;BME280;29815;48.184;11.268;2022-11-13T03:49:50;96360.94;;;2.96;100.00
43878;BME280;29815;48.184;11.268;2022-11-13T03:52:39;96358.25;;;2.96;100.00
43878;BME280;29815;48.184;11.268;2022-11-13T03:55:27;96348.66;;;2.95;100.00
43878;BME280;29815;48.184;11.268;2022-11-13T03:58:15;96359.28;;;2.95;100.00
43878;BME280;29815;48.184;11.268;2022-11-13T04:01:03;96351.50;;;2.93;100.00
43878;BME280;29815;48.184;11.268;2022-11-13T04:03:52;96343.94;;;2.90;100.00
43878;BME280;29815;48.184;11.268;2022-11-13T04:06:41;96342.28;;;2.89;100.00
43878;BME280;29815;48.184;11.268;2022-11-13T04:09:29;96334.53;;;2.88;100.00
43878;BME280;29815;48.184;11.268;2022-11-13T04:12:17;96332.47;;;2.90;100.00
43878;BME280;29815;48.184;11.268;2022-11-13T04:15:06;96327.16;;;2.90;100.00
43878;BME280;29815;48.184;11.268;2022-11-13T04:17:55;96325.31;;;2.90;100.00
43878;BME280;29815;48.184;11.268;2022-11-13T04:20:43;96322.88;;;2.89;100.00
43878;BME280;29815;48.184;11.268;2022-11-13T04:23:33;96312.44;;;2.87;100.00
43878;BME280;29815;48.184;11.268;2022-11-13T04:26:22;96310.38;;;2.83;100.00
43878;BME280;29815;48.184;11.268;2022-11-13T04:29:10;96310.38;;;2.83;100.00
43878;BME280;29815;48.184;11.268;2022-11-13T04:31:58;96304.88;;;2.84;100.00
43878;BME280;29815;48.184;11.268;2022-11-13T04:34:46;96314.06;;;2.82;100.00
43878;BME280;29815;48.184;11.268;2022-11-13T04:37:35;96310.56;;;2.81;100.00
43878;BME280;29815;48.184;11.268;2022-11-13T04:40:24;96307.50;;;2.78;100.00
43878;BME280;29815;48.184;11.268;2022-11-13T04:43:12;96299.72;;;2.76;100.00
43878;BME280;29815;48.184;11.268;2022-11-13T04:45:59;96304.22;;;2.76;100.00
43878;BME280;29815;48.184;11.268;2022-11-13T04:48:47;96298.91;;;2.76;100.00
43878;BME280;29815;48.184;11.268;2022-11-13T04:51:36;96298.72;;;2.70;100.00
43878;BME280;29815;48.184;11.268;2022-11-13T04:54:24;96294.44;;;2.69;100.00
43878;BME280;29815;48.184;11.268;2022-11-13T04:57:16;96293.41;;;2.70;100.00
43878;BME280;29815;48.184;11.268;2022-11-13T05:00:05;96291.97;;;2.68;100.00
43878;BME280;29815;48.184;11.268;2022-11-13T05:02:55;96288.28;;;2.62;100.00
43878;BME280;29815;48.184;11.268;2022-11-13T05:05:44;96292.34;;;2.58;100.00
43878;BME280;29815;48.184;11.268;2022-11-13T05:08:32;96294.78;;;2.53;100.00
43878;BME280;29815;48.184;11.268;2022-11-13T05:11:21;96285.19;;;2.52;100.00
43878;BME280;29815;48.184;11.268;2022-11-13T05:14:12;96286.59;;;2.48;100.00
43878;BME280;29815;48.184;11.268;2022-11-13T05:17:00;96283.34;;;2.46;100.00
43878;BME280;29815;48.184;11.268;2022-11-13T05:19:49;96281.50;;;2.40;100.00
43878;BME280;29815;48.184;11.268;2022-11-13T05:22:36;96284.75;;;2.35;100.00
43878;BME280;29815;48.184;11.268;2022-11-13T05:25:24;96281.47;;;2.33;100.00
43878;BME280;29815;48.184;11.268;2022-11-13T05:28:13;96283.91;;;2.28;100.00
43878;BME280;29815;48.184;11.268;2022-11-13T05:31:10;96277.97;;;2.26;100.00
43878;BME280;29815;48.184;11.268;2022-11-13T05:34:02;96288.78;;;2.25;100.00
43878;BME280;29815;48.184;11.268;2022-11-13T05:36:51;96271.22;;;2.24;100.00
43878;BME280;29815;48.184;11.268;2022-11-13T05:39:39;96263.44;;;2.22;100.00
43878;BME280;29815;48.184;11.268;2022-11-13T05:42:28;96266.09;;;2.22;100.00
43878;BME280;29815;48.184;11.268;2022-11-13T05:45:16;96256.31;;;2.23;100.00
43878;BME280;29815;48.184;11.268;2022-11-13T05:48:06;96247.31;;;2.24;100.00
43878;BME280;29815;48.184;11.268;2022-11-13T05:50:59;96255.69;;;2.21;100.00
43878;BME280;29815;48.184;11.268;2022-11-13T05:53:48;96249.78;;;2.19;100.00
43878;BME280;29815;48.184;11.268;2022-11-13T05:56:36;96248.97;;;2.18;100.00
43878;BME280;29815;48.184;11.268;2022-11-13T05:59:26;96255.47;;;2.16;100.00
43878;BME280;29815;48.184;11.268;2022-11-13T06:02:14;96250.38;;;2.14;100.00
43878;BME280;29815;48.184;11.268;2022-11-13T06:05:04;96256.28;;;2.10;100.00
43878;BME280;29815;48.184;11.268;2022-11-13T06:07:53;96250.56;;;2.13;100.00
43878;BME280;29815;48.184;11.268;2022-11-13T06:10:41;96250.16;;;2.09;100.00
43878;BME280;29815;48.184;11.268;2022-11-13T06:13:30;96237.28;;;2.06;100.00
43878;BME280;29815;48.184;11.268;2022-11-13T06:16:21;96244.63;;;2.04;100.00
43878;BME280;29815;48.184;11.268;2022-11-13T06:19:10;96234.19;;;2.02;100.00
43878;BME280;29815;48.184;11.268;2022-11-13T06:22:00;96211.91;;;1.97;100.00
43878;BME280;29815;48.184;11.268;2022-11-13T06:24:48;96224.38;;;1.96;100.00
43878;BME280;29815;48.184;11.268;2022-11-13T06:27:36;96218.84;;;1.91;100.00
43878;BME280;29815;48.184;11.268;2022-11-13T06:30:24;96213.75;;;1.90;100.00
43878;BME280;29815;48.184;11.268;2022-11-13T06:33:12;96222.53;;;1.90;100.00
43878;BME280;29815;48.184;11.268;2022-11-13T06:36:01;96218.44;;;1.88;100.00
43878;BME280;29815;48.184;11.268;2022-11-13T06:38:51;96214.56;;;1.90;100.00
43878;BME280;29815;48.184;11.268;2022-11-13T06:41:39;96212.31;;;1.94;100.00
43878;BME280;29815;48.184;11.268;2022-11-13T06:44:28;96210.91;;;1.91;100.00
43878;BME280;29815;48.184;11.268;2022-11-13T06:47:16;96203.13;;;1.90;100.00
43878;BME280;29815;48.184;11.268;2022-11-13T06:50:06;96214.97;;;1.87;100.00
43878;BME280;29815;48.184;11.268;2022-11-13T06:52:54;96198.22;;;1.87;100.00
43878;BME280;29815;48.184;11.268;2022-11-13T06:55:45;96180.03;;;1.84;100.00
43878;BME280;29815;48.184;11.268;2022-11-13T06:58:35;96178.41;;;1.83;100.00
43878;BME280;29815;48.184;11.268;2022-11-13T07:01:25;96171.06;;;1.85;100.00
43878;BME280;29815;48.184;11.268;2022-11-13T07:04:13;96169.84;;;1.87;100.00
43878;BME280;29815;48.184;11.268;2022-11-13T07:07:01;96173.72;;;1.91;100.00
43878;BME280;29815;48.184;11.268;2022-11-13T07:09:49;96177.41;;;1.90;100.00
43878;BME280;29815;48.184;11.268;2022-11-13T07:12:39;96162.69;;;1.88;100.00
43878;BME280;29815;48.184;11.268;2022-11-13T07:15:27;96162.50;;;1.89;100.00
43878;BME280;29815;48.184;11.268;2022-11-13T07:18:15;96163.72;;;1.87;100.00
43878;BME280;29815;48.184;11.268;2022-11-13T07:21:11;96161.88;;;1.87;100.00
43878;BME280;29815;48.184;11.268;2022-11-13T07:23:59;96158.22;;;1.88;100.00
43878;BME280;29815;48.184;11.268;2022-11-13T07:26:47;96159.63;;;1.84;100.00
43878;BME280;29815;48.184;11.268;2022-11-13T07:29:37;96180.66;;;1.86;100.00
43878;BME280;29815;48.184;11.268;2022-11-13T07:32:25;96184.34;;;1.91;100.00
43878;BME280;29815;48.184;11.268;2022-11-13T07:35:14;96172.28;;;1.95;100.00
43878;BME280;29815;48.184;11.268;2022-11-13T07:38:02;96160.25;;;1.99;100.00
43878;BME280;29815;48.184;11.268;2022-11-13T07:40:50;96166.19;;;2.01;100.00
43878;BME280;29815;48.184;11.268;2022-11-13T07:43:39;96163.94;;;1.98;100.00
43878;BME280;29815;48.184;11.268;2022-11-13T07:46:28;96157.81;;;1.98;100.00
43878;BME280;29815;48.184;11.268;2022-11-13T07:49:16;96167.19;;;2.00;100.00
43878;BME280;29815;48.184;11.268;2022-11-13T07:52:04;96177.03;;;2.07;100.00
43878;BME280;29815;48.184;11.268;2022-11-13T07:54:52;96170.72;;;2.14;100.00
43878;BME280;29815;48.184;11.268;2022-11-13T07:57:40;96174.59;;;2.18;100.00
43878;BME280;29815;48.184;11.268;2022-11-13T08:00:30;96186.44;;;2.22;100.00
43878;BME280;29815;48.184;11.268;2022-11-13T08:03:22;96195.03;;;2.31;100.00
43878;BME280;29815;48.184;11.268;2022-11-13T08:06:10;96195.44;;;2.34;100.00
43878;BME280;29815;48.184;11.268;2022-11-13T08:08:58;96212.22;;;2.42;100.00
43878;BME280;29815;48.184;11.268;2022-11-13T08:11:47;96209.78;;;2.40;100.00
43878;BME280;29815;48.184;11.268;2022-11-13T08:14:35;96221.00;;;2.42;100.00
43878;BME280;29815;48.184;11.268;2022-11-13T08:17:23;96210.78;;;2.39;100.00
43878;BME280;29815;48.184;11.268;2022-11-13T08:20:13;96217.94;;;2.38;100.00
43878;BME280;29815;48.184;11.268;2022-11-13T08:23:04;96212.22;;;2.42;100.00
43878;BME280;29815;48.184;11.268;2022-11-13T08:25:52;96207.31;;;2.38;100.00
43878;BME280;29815;48.184;11.268;2022-11-13T08:28:40;96192.59;;;2.43;100.00
43878;BME280;29815;48.184;11.268;2022-11-13T08:31:29;96191.38;;;2.45;100.00
43878;BME280;29815;48.184;11.268;2022-11-13T08:34:17;96191.16;;;2.47;100.00
43878;BME280;29815;48.184;11.268;2022-11-13T08:37:07;96166.84;;;2.50;100.00
43878;BME280;29815;48.184;11.268;2022-11-13T08:39:56;96155.59;;;2.54;100.00
43878;BME280;29815;48.184;11.268;2022-11-13T08:42:44;96159.09;;;2.61;100.00
43878;BME280;29815;48.184;11.268;2022-11-13T08:45:32;96160.72;;;2.69;100.00
43878;BME280;29815;48.184;11.268;2022-11-13T08:48:21;96168.06;;;2.73;100.00
43878;BME280;29815;48.184;11.268;2022-11-13T08:51:09;96165.19;;;2.75;100.00
43878;BME280;29815;48.184;11.268;2022-11-13T08:54:00;96167.84;;;2.82;100.00
43878;BME280;29815;48.184;11.268;2022-11-13T08:56:49;96159.06;;;2.88;100.00
43878;BME280;29815;48.184;11.268;2022-11-13T08:59:42;96150.25;;;2.94;100.00
43878;BME280;29815;48.184;11.268;2022-11-13T09:02:30;96151.69;;;2.96;100.00
43878;BME280;29815;48.184;11.268;2022-11-13T09:05:18;96147.97;;;3.04;100.00
43878;BME280;29815;48.184;11.268;2022-11-13T09:08:06;96141.63;;;3.05;100.00
43878;BME280;29815;48.184;11.268;2022-11-13T09:10:56;96149.00;;;3.10;100.00
43878;BME280;29815;48.184;11.268;2022-11-13T09:13:48;96131.38;;;3.15;100.00
43878;BME280;29815;48.184;11.268;2022-11-13T09:16:39;96141.00;;;3.23;100.00
43878;BME280;29815;48.184;11.268;2022-11-13T09:19:28;96138.72;;;3.26;100.00
43878;BME280;29815;48.184;11.268;2022-11-13T09:22:15;96144.41;;;3.30;100.00
43878;BME280;29815;48.184;11.268;2022-11-13T09:25:05;96145.03;;;3.32;100.00
43878;BME280;29815;48.184;11.268;2022-11-13T09:27:57;96143.19;;;3.32;100.00
43878;BME280;29815;48.184;11.268;2022-11-13T09:30:47;96134.19;;;3.33;100.00
43878;BME280;29815;48.184;11.268;2022-11-13T09:33:35;96129.88;;;3.32;100.00
43878;BME280;29815;48.184;11.268;2022-11-13T09:36:23;96136.22;;;3.31;100.00
43878;BME280;29815;48.184;11.268;2022-11-13T09:39:12;96121.91;;;3.32;100.00
43878;BME280;29815;48.184;11.268;2022-11-13T09:42:11;96126.38;;;3.38;100.00
43878;BME280;29815;48.184;11.268;2022-11-13T09:45:09;96117.56;;;3.45;100.00
43878;BME280;29815;48.184;11.268;2022-11-13T09:48:12;96114.88;;;3.51;100.00
43878;BME280;29815;48.184;11.268;2022-11-13T09:51:11;96103.59;;;3.56;100.00
43878;BME280;29815;48.184;11.268;2022-11-13T09:54:05;96107.66;;;3.58;100.00
43878;BME280;29815;48.184;11.268;2022-11-13T09:57:03;96110.72;;;3.62;100.00
43878;BME280;29815;48.184;11.268;2022-11-13T10:00:04;96119.94;;;3.66;100.00
43878;BME280;29815;48.184;11.268;2022-11-13T10:03:09;96122.16;;;3.69;100.00
43878;BME280;29815;48.184;11.268;2022-11-13T10:06:35;96120.28;;;3.76;100.00
43878;BME280;29815;48.184;11.268;2022-11-13T10:09:36;96123.94;;;3.82;100.00
43878;BME280;29815;48.184;11.268;2022-11-13T10:12:33;96109.75;;;3.88;100.00
43878;BME280;29815;48.184;11.268;2022-11-13T10:15:24;96112.81;;;3.91;100.00
43878;BME280;29815;48.184;11.268;2022-11-13T10:18:18;96106.63;;;3.97;100.00
43878;BME280;29815;48.184;11.268;2022-11-13T10:21:16;96094.53;;;4.01;100.00
43878;BME280;29815;48.184;11.268;2022-11-13T10:24:25;96100.41;;;4.10;100.00
43878;BME280;29815;48.184;11.268;2022-11-13T10:27:14;96106.91;;;4.14;100.00
43878;BME280;29815;48.184;11.268;2022-11-13T10:30:09;96082.13;;;4.14;100.00
43878;BME280;29815;48.184;11.268;2022-11-13T10:33:06;96079.03;;;4.17;100.00
43878;BME280;29815;48.184;11.268;2022-11-13T10:36:02;96081.66;;;4.23;100.00
43878;BME280;29815;48.184;11.268;2022-11-13T10:39:04;96074.22;;;4.32;100.00
43878;BME280;29815;48.184;11.268;2022-11-13T10:41:56;96061.06;;;4.37;100.00
43878;BME280;29815;48.184;11.268;2022-11-13T10:44:54;96043.22;;;4.37;100.00
43878;BME280;29815;48.184;11.268;2022-11-13T10:47:47;96044.47;;;4.35;100.00
43878;BME280;29815;48.184;11.268;2022-11-13T10:50:58;96043.66;;;4.34;100.00
43878;BME280;29815;48.184;11.268;2022-11-13T10:53:47;96044.84;;;4.38;100.00
43878;BME280;29815;48.184;11.268;2022-11-13T10:56:36;96037.38;;;4.47;100.00
43878;BME280;29815;48.184;11.268;2022-11-13T10:59:24;96019.69;;;4.53;100.00
43878;BME280;29815;48.184;11.268;2022-11-13T11:02:18;96024.75;;;4.61;100.00
43878;BME280;29815;48.184;11.268;2022-11-13T11:05:17;95999.03;;;4.66;100.00
43878;BME280;29815;48.184;11.268;2022-11-13T11:08:09;96007.78;;;4.73;100.00
43878;BME280;29815;48.184;11.268;2022-11-13T11:11:00;96002.97;;;4.82;100.00
43878;BME280;29815;48.184;11.268;2022-11-13T11:14:17;95999.66;;;4.87;100.00
43878;BME280;29815;48.184;11.268;2022-11-13T11:17:11;95996.88;;;4.93;100.00
43878;BME280;29815;48.184;11.268;2022-11-13T11:20:06;95997.69;;;4.94;100.00
43878;BME280;29815;48.184;11.268;2022-11-13T11:23:28;95981.69;;;4.94;100.00
43878;BME280;29815;48.184;11.268;2022-11-13T11:26:33;95981.34;;;4.90;100.00
43878;BME280;29815;48.184;11.268;2022-11-13T11:29:29;95982.38;;;4.89;100.00
43878;BME280;29815;48.184;11.268;2022-11-13T11:32:25;95990.16;;;4.91;100.00
43878;BME280;29815;48.184;11.268;2022-11-13T11:35:20;95992.03;;;4.90;100.00
43878;BME280;29815;48.184;11.268;2022-11-13T11:38:15;95986.47;;;4.92;100.00
43878;BME280;29815;48.184;11.268;2022-11-13T11:41:16;95982.28;;;4.96;100.00
43878;BME280;29815;48.184;11.268;2022-11-13T11:44:14;95981.63;;;5.00;100.00
43878;BME280;29815;48.184;11.268;2022-11-13T11:47:13;95963.53;;;5.02;100.00
43878;BME280;29815;48.184;11.268;2022-11-13T11:50:05;95951.59;;;5.05;100.00
43878;BME280;29815;48.184;11.268;2022-11-13T11:53:05;95960.66;;;5.04;100.00
43878;BME280;29815;48.184;11.268;2022-11-13T11:56:17;95953.81;;;5.08;100.00
43878;BME280;29815;48.184;11.268;2022-11-13T11:59:30;95942.13;;;5.09;100.00
43878;BME280;29815;48.184;11.268;2022-11-13T12:02:50;95934.13;;;5.09;100.00
43878;BME280;29815;48.184;11.268;2022-11-13T12:06:00;95910.69;;;5.11;100.00
43878;BME280;29815;48.184;11.268;2022-11-13T12:08:59;95915.88;;;5.06;100.00
43878;BME280;29815;48.184;11.268;2022-11-13T12:12:01;95897.81;;;5.08;100.00
43878;BME280;29815;48.184;11.268;2022-11-13T12:15:02;95899.22;;;5.10;100.00
43878;BME280;29815;48.184;11.268;2022-11-13T12:18:04;95888.56;;;5.22;100.00
43878;BME280;29815;48.184;11.268;2022-11-13T12:21:20;95902.31;;;5.37;100.00
43878;BME280;29815;48.184;11.268;2022-11-13T12:24:49;95904.28;;;5.54;100.00
43878;BME280;29815;48.184;11.268;2022-11-13T12:27:52;95905.97;;;5.66;100.00
43878;BME280;29815;48.184;11.268;2022-11-13T12:30:57;95897.13;;;5.77;100.00
43878;BME280;29815;48.184;11.268;2022-11-13T12:33:59;95888.94;;;5.91;100.00
43878;BME280;29815;48.184;11.268;2022-11-13T12:36:52;95882.44;;;5.98;100.00
43878;BME280;29815;48.184;11.268;2022-11-13T12:39:47;95881.84;;;6.08;100.00
43878;BME280;29815;48.184;11.268;2022-11-13T12:42:43;95881.84;;;6.20;100.00
43878;BME280;29815;48.184;11.268;2022-11-13T12:45:49;95884.16;;;6.28;100.00
43878;BME280;29815;48.184;11.268;2022-11-13T12:48:39;95866.47;;;6.38;100.00
43878;BME280;29815;48.184;11.268;2022-11-13T12:51:38;95859.25;;;6.51;100.00
43878;BME280;29815;48.184;11.268;2022-11-13T12:54:29;95844.91;;;6.57;100.00
43878;BME280;29815;48.184;11.268;2022-11-13T12:57:22;95835.22;;;6.67;100.00
43878;BME280;29815;48.184;11.268;2022-11-13T13:00:25;95827.66;;;6.76;100.00
43878;BME280;29815;48.184;11.268;2022-11-13T13:03:29;95828.16;;;6.90;100.00
43878;BME280;29815;48.184;11.268;2022-11-13T13:06:44;95842.16;;;7.08;100.00
43878;BME280;29815;48.184;11.268;2022-11-13T13:09:53;95846.13;;;7.23;100.00
43878;BME280;29815;48.184;11.268;2022-11-13T13:12:55;95838.63;;;7.36;100.00
43878;BME280;29815;48.184;11.268;2022-11-13T13:15:56;95835.94;;;7.53;100.00
43878;BME280;29815;48.184;11.268;2022-11-13T13:18:46;95825.53;;;7.73;100.00
43878;BME280;29815;48.184;11.268;2022-11-13T13:21:42;95808.31;;;7.86;100.00
43878;BME280;29815;48.184;11.268;2022-11-13T13:24:33;95813.88;;;8.01;100.00
43878;BME280;29815;48.184;11.268;2022-11-13T13:27:25;95813.16;;;8.28;100.00
43878;BME280;29815;48.184;11.268;2022-11-13T13:30:17;95809.56;;;8.61;100.00
43878;BME280;29815;48.184;11.268;2022-11-13T13:33:17;95811.09;;;9.00;100.00
43878;BME280;29815;48.184;11.268;2022-11-13T13:36:21;95796.69;;;9.43;100.00
43878;BME280;29815;48.184;11.268;2022-11-13T13:39:27;95791.94;;;9.93;100.00
43878;BME280;29815;48.184;11.268;2022-11-13T13:42:35;95800.88;;;10.50;100.00
43878;BME280;29815;48.184;11.268;2022-11-13T13:45:42;95809.94;;;11.07;100.00
43878;BME280;29815;48.184;11.268;2022-11-13T13:48:40;95799.75;;;11.65;100.00
43878;BME280;29815;48.184;11.268;2022-11-13T13:51:35;95798.63;;;12.11;100.00
43878;BME280;29815;48.184;11.268;2022-11-13T13:54:29;95802.06;;;12.37;100.00
43878;BME280;29815;48.184;11.268;2022-11-13T13:57:22;95785.72;;;12.78;100.00
43878;BME280;29815;48.184;11.268;2022-11-13T14:00:14;95775.50;;;13.14;100.00
43878;BME280;29815;48.184;11.268;2022-11-13T14:03:15;95781.22;;;13.51;100.00
43878;BME280;29815;48.184;11.268;2022-11-13T14:06:18;95766.66;;;13.76;100.00
43878;BME280;29815;48.184;11.268;2022-11-13T14:09:08;95765.09;;;13.99;100.00
43878;BME280;29815;48.184;11.268;2022-11-13T14:11:59;95755.56;;;14.07;100.00
43878;BME280;29815;48.184;11.268;2022-11-13T14:14:55;95749.47;;;14.20;100.00
43878;BME280;29815;48.184;11.268;2022-11-13T14:17:43;95745.53;;;14.31;100.00
43878;BME280;29815;48.184;11.268;2022-11-13T14:20:42;95734.94;;;14.35;100.00
43878;BME280;29815;48.184;11.268;2022-11-13T14:23:38;95740.81;;;14.47;100.00
43878;BME280;29815;48.184;11.268;2022-11-13T14:26:29;95750.25;;;14.49;100.00
43878;BME280;29815;48.184;11.268;2022-11-13T14:29:31;95742.50;;;14.62;100.00
43878;BME280;29815;48.184;11.268;2022-11-13T14:32:25;95750.94;;;14.79;100.00
43878;BME280;29815;48.184;11.268;2022-11-13T14:35:19;95744.28;;;14.90;100.00
43878;BME280;29815;48.184;11.268;2022-11-13T14:38:19;95745.59;;;14.93;100.00
43878;BME280;29815;48.184;11.268;2022-11-13T14:41:20;95746.41;;;14.93;100.00
43878;BME280;29815;48.184;11.268;2022-11-13T14:44:11;95746.69;;;14.73;100.00
43878;BME280;29815;48.184;11.268;2022-11-13T14:47:02;95755.91;;;14.24;100.00
43878;BME280;29815;48.184;11.268;2022-11-13T14:49:51;95752.88;;;13.78;100.00
43878;BME280;29815;48.184;11.268;2022-11-13T14:52:39;95742.41;;;13.37;100.00
43878;BME280;29815;48.184;11.268;2022-11-13T14:55:30;95738.03;;;13.02;100.00
43878;BME280;29815;48.184;11.268;2022-11-13T14:58:29;95732.59;;;12.63;100.00
43878;BME280;29815;48.184;11.268;2022-11-13T15:01:21;95741.63;;;12.33;100.00
43878;BME280;29815;48.184;11.268;2022-11-13T15:04:10;95734.22;;;12.00;100.00